Bonaventure, Florida
Current Conditions -  °F | °C
As of 10:53 PM on Sunday 21 Dec 2014 (Local Time) from KHWO Reporting Station
Scattered Clouds Scattered Clouds  
Wind Chill: 71°   Ceiling: Unl
Heat Index: 71°   Visibility: 10mi
Dew Point: 65°   Wind: 6mph
Humidity: 81%   Direction: 120°ESE
Pressure: 30.05"   Gusts: NA
Location:  26.097°N, 80.3968°W
Report Text: KHWO 220353Z AUTO 12005KT 10SM SCT120 22/18 A3005 RMK AO2 SLP176 T02170183
Loading
Personal Weather Stations






























Interactive Weather Map New forecast layout! Learn more

10-Day Weather Forecast

Advertisements
Track Severe Weather on mobile